sensor_id;sensor_type;location;lat;lon;timestamp;P1;durP1;ratioP1;P2;durP2;ratioP2
59066;SDS011;44854;50.838;4.438;2023-11-19T00:00:29;12.68;;;5.05;;
59066;SDS011;44854;50.838;4.438;2023-11-19T00:02:55;11.10;;;4.65;;
59066;SDS011;44854;50.838;4.438;2023-11-19T00:05:22;14.63;;;4.95;;
59066;SDS011;44854;50.838;4.438;2023-11-19T00:07:48;15.23;;;4.35;;
59066;SDS011;44854;50.838;4.438;2023-11-19T00:10:15;13.80;;;4.45;;
59066;SDS011;44854;50.838;4.438;2023-11-19T00:12:45;13.73;;;4.93;;
59066;SDS011;44854;50.838;4.438;2023-11-19T00:15:11;12.85;;;4.70;;
59066;SDS011;44854;50.838;4.438;2023-11-19T00:17:38;13.65;;;4.88;;
59066;SDS011;44854;50.838;4.438;2023-11-19T00:20:10;18.00;;;4.32;;
59066;SDS011;44854;50.838;4.438;2023-11-19T00:22:36;19.00;;;5.00;;
59066;SDS011;44854;50.838;4.438;2023-11-19T00:25:02;11.77;;;3.63;;
59066;SDS011;44854;50.838;4.438;2023-11-19T00:27:28;12.88;;;4.10;;
59066;SDS011;44854;50.838;4.438;2023-11-19T00:29:54;14.20;;;4.30;;
59066;SDS011;44854;50.838;4.438;2023-11-19T00:32:20;19.30;;;3.90;;
59066;SDS011;44854;50.838;4.438;2023-11-19T00:34:45;12.73;;;3.75;;
59066;SDS011;44854;50.838;4.438;2023-11-19T00:37:12;17.80;;;4.40;;
59066;SDS011;44854;50.838;4.438;2023-11-19T00:39:39;21.67;;;4.28;;
59066;SDS011;44854;50.838;4.438;2023-11-19T00:42:04;14.48;;;3.75;;
59066;SDS011;44854;50.838;4.438;2023-11-19T00:44:30;16.75;;;4.38;;
59066;SDS011;44854;50.838;4.438;2023-11-19T00:46:56;14.32;;;4.20;;
59066;SDS011;44854;50.838;4.438;2023-11-19T00:49:22;17.52;;;4.75;;
59066;SDS011;44854;50.838;4.438;2023-11-19T00:51:47;18.45;;;4.25;;
59066;SDS011;44854;50.838;4.438;2023-11-19T00:54:14;21.23;;;4.05;;
59066;SDS011;44854;50.838;4.438;2023-11-19T00:56:40;19.73;;;4.45;;
59066;SDS011;44854;50.838;4.438;2023-11-19T00:59:05;18.15;;;4.00;;
59066;SDS011;44854;50.838;4.438;2023-11-19T01:01:31;16.98;;;4.22;;
59066;SDS011;44854;50.838;4.438;2023-11-19T01:03:57;23.75;;;4.50;;
59066;SDS011;44854;50.838;4.438;2023-11-19T01:06:32;18.90;;;3.70;;
59066;SDS011;44854;50.838;4.438;2023-11-19T01:08:58;25.83;;;4.10;;
59066;SDS011;44854;50.838;4.438;2023-11-19T01:11:24;17.70;;;4.65;;
59066;SDS011;44854;50.838;4.438;2023-11-19T01:13:50;15.68;;;4.00;;
59066;SDS011;44854;50.838;4.438;2023-11-19T01:16:16;15.18;;;3.67;;
59066;SDS011;44854;50.838;4.438;2023-11-19T01:18:43;19.80;;;4.93;;
59066;SDS011;44854;50.838;4.438;2023-11-19T01:21:09;23.17;;;4.40;;
59066;SDS011;44854;50.838;4.438;2023-11-19T01:23:35;22.67;;;4.80;;
59066;SDS011;44854;50.838;4.438;2023-11-19T01:26:02;16.90;;;3.45;;
59066;SDS011;44854;50.838;4.438;2023-11-19T01:28:28;21.20;;;3.97;;
59066;SDS011;44854;50.838;4.438;2023-11-19T01:30:53;16.17;;;4.20;;
59066;SDS011;44854;50.838;4.438;2023-11-19T01:33:19;18.15;;;4.25;;
59066;SDS011;44854;50.838;4.438;2023-11-19T01:35:46;16.25;;;3.63;;
59066;SDS011;44854;50.838;4.438;2023-11-19T01:38:12;20.88;;;4.35;;
59066;SDS011;44854;50.838;4.438;2023-11-19T01:40:37;20.70;;;3.75;;
59066;SDS011;44854;50.838;4.438;2023-11-19T01:43:05;19.88;;;3.45;;
59066;SDS011;44854;50.838;4.438;2023-11-19T01:45:31;26.23;;;4.35;;
59066;SDS011;44854;50.838;4.438;2023-11-19T01:47:59;19.98;;;4.07;;
59066;SDS011;44854;50.838;4.438;2023-11-19T01:50:29;22.85;;;4.75;;
59066;SDS011;44854;50.838;4.438;2023-11-19T01:52:56;23.20;;;4.43;;
59066;SDS011;44854;50.838;4.438;2023-11-19T01:55:23;19.38;;;3.88;;
59066;SDS011;44854;50.838;4.438;2023-11-19T01:57:50;20.88;;;4.03;;
59066;SDS011;44854;50.838;4.438;2023-11-19T02:00:18;19.05;;;4.25;;
59066;SDS011;44854;50.838;4.438;2023-11-19T02:02:45;21.73;;;4.90;;
59066;SDS011;44854;50.838;4.438;2023-11-19T02:05:13;24.95;;;5.40;;
59066;SDS011;44854;50.838;4.438;2023-11-19T02:07:39;19.25;;;4.47;;
59066;SDS011;44854;50.838;4.438;2023-11-19T02:10:05;20.60;;;4.88;;
59066;SDS011;44854;50.838;4.438;2023-11-19T02:12:32;33.80;;;5.40;;
59066;SDS011;44854;50.838;4.438;2023-11-19T02:15:02;23.90;;;4.15;;
59066;SDS011;44854;50.838;4.438;2023-11-19T02:17:28;22.27;;;4.88;;
59066;SDS011;44854;50.838;4.438;2023-11-19T02:19:59;33.25;;;4.90;;
59066;SDS011;44854;50.838;4.438;2023-11-19T02:22:25;33.78;;;4.97;;
59066;SDS011;44854;50.838;4.438;2023-11-19T02:24:52;29.13;;;4.90;;
59066;SDS011;44854;50.838;4.438;2023-11-19T02:27:30;26.10;;;5.18;;
59066;SDS011;44854;50.838;4.438;2023-11-19T02:30:05;32.55;;;5.20;;
59066;SDS011;44854;50.838;4.438;2023-11-19T02:32:33;24.13;;;5.75;;
59066;SDS011;44854;50.838;4.438;2023-11-19T02:35:00;32.55;;;5.82;;
59066;SDS011;44854;50.838;4.438;2023-11-19T02:37:26;22.35;;;4.82;;
59066;SDS011;44854;50.838;4.438;2023-11-19T02:39:53;29.90;;;5.50;;
59066;SDS011;44854;50.838;4.438;2023-11-19T02:42:19;24.58;;;4.80;;
59066;SDS011;44854;50.838;4.438;2023-11-19T02:44:45;24.42;;;4.07;;
59066;SDS011;44854;50.838;4.438;2023-11-19T02:47:11;26.05;;;4.80;;
59066;SDS011;44854;50.838;4.438;2023-11-19T02:49:37;31.55;;;4.97;;
59066;SDS011;44854;50.838;4.438;2023-11-19T02:52:03;23.63;;;4.75;;
59066;SDS011;44854;50.838;4.438;2023-11-19T02:54:30;28.67;;;4.80;;
59066;SDS011;44854;50.838;4.438;2023-11-19T02:57:00;26.63;;;4.30;;
59066;SDS011;44854;50.838;4.438;2023-11-19T02:59:27;22.35;;;4.07;;
59066;SDS011;44854;50.838;4.438;2023-11-19T03:02:03;25.33;;;4.75;;
59066;SDS011;44854;50.838;4.438;2023-11-19T03:04:36;31.55;;;4.55;;
59066;SDS011;44854;50.838;4.438;2023-11-19T03:07:05;26.15;;;4.30;;
59066;SDS011;44854;50.838;4.438;2023-11-19T03:09:32;19.30;;;3.88;;
59066;SDS011;44854;50.838;4.438;2023-11-19T03:11:59;33.30;;;4.97;;
59066;SDS011;44854;50.838;4.438;2023-11-19T03:14:24;24.20;;;4.20;;
59066;SDS011;44854;50.838;4.438;2023-11-19T03:16:50;24.15;;;4.25;;
59066;SDS011;44854;50.838;4.438;2023-11-19T03:19:16;31.48;;;4.60;;
59066;SDS011;44854;50.838;4.438;2023-11-19T03:21:42;30.58;;;4.65;;
59066;SDS011;44854;50.838;4.438;2023-11-19T03:24:08;26.38;;;5.40;;
59066;SDS011;44854;50.838;4.438;2023-11-19T03:26:34;25.88;;;4.72;;
59066;SDS011;44854;50.838;4.438;2023-11-19T03:28:59;33.85;;;5.60;;
59066;SDS011;44854;50.838;4.438;2023-11-19T03:31:26;33.13;;;4.90;;
59066;SDS011;44854;50.838;4.438;2023-11-19T03:33:52;24.55;;;4.78;;
59066;SDS011;44854;50.838;4.438;2023-11-19T03:36:17;30.08;;;4.80;;
59066;SDS011;44854;50.838;4.438;2023-11-19T03:38:43;29.15;;;5.82;;
59066;SDS011;44854;50.838;4.438;2023-11-19T03:41:12;28.38;;;4.65;;
59066;SDS011;44854;50.838;4.438;2023-11-19T03:43:38;32.60;;;4.75;;
59066;SDS011;44854;50.838;4.438;2023-11-19T03:46:05;29.87;;;5.70;;
59066;SDS011;44854;50.838;4.438;2023-11-19T03:48:52;28.48;;;5.57;;
59066;SDS011;44854;50.838;4.438;2023-11-19T03:51:17;27.75;;;5.05;;
59066;SDS011;44854;50.838;4.438;2023-11-19T03:53:46;34.85;;;6.15;;
59066;SDS011;44854;50.838;4.438;2023-11-19T03:56:11;29.83;;;4.65;;
59066;SDS011;44854;50.838;4.438;2023-11-19T03:58:38;29.38;;;4.25;;
59066;SDS011;44854;50.838;4.438;2023-11-19T04:01:04;29.95;;;5.18;;
59066;SDS011;44854;50.838;4.438;2023-11-19T04:03:31;30.92;;;5.50;;
59066;SDS011;44854;50.838;4.438;2023-11-19T04:05:56;34.13;;;5.43;;
59066;SDS011;44854;50.838;4.438;2023-11-19T04:08:22;32.53;;;4.88;;
59066;SDS011;44854;50.838;4.438;2023-11-19T04:10:48;34.85;;;5.32;;
59066;SDS011;44854;50.838;4.438;2023-11-19T04:13:14;32.28;;;5.32;;
59066;SDS011;44854;50.838;4.438;2023-11-19T04:15:39;35.78;;;5.22;;
59066;SDS011;44854;50.838;4.438;2023-11-19T04:18:05;31.13;;;6.20;;
59066;SDS011;44854;50.838;4.438;2023-11-19T04:20:32;46.93;;;5.87;;
59066;SDS011;44854;50.838;4.438;2023-11-19T04:22:58;31.15;;;5.38;;
59066;SDS011;44854;50.838;4.438;2023-11-19T04:25:25;36.35;;;5.82;;
59066;SDS011;44854;50.838;4.438;2023-11-19T04:27:51;37.10;;;5.72;;
59066;SDS011;44854;50.838;4.438;2023-11-19T04:30:17;30.23;;;5.45;;
59066;SDS011;44854;50.838;4.438;2023-11-19T04:32:46;34.85;;;5.10;;
59066;SDS011;44854;50.838;4.438;2023-11-19T04:35:13;43.50;;;5.70;;
59066;SDS011;44854;50.838;4.438;2023-11-19T04:37:39;31.60;;;5.28;;
59066;SDS011;44854;50.838;4.438;2023-11-19T04:40:06;45.28;;;6.43;;
59066;SDS011;44854;50.838;4.438;2023-11-19T04:42:32;28.55;;;5.85;;
59066;SDS011;44854;50.838;4.438;2023-11-19T04:44:58;37.60;;;5.40;;
59066;SDS011;44854;50.838;4.438;2023-11-19T04:47:24;36.67;;;5.80;;
59066;SDS011;44854;50.838;4.438;2023-11-19T04:49:49;28.58;;;5.55;;
59066;SDS011;44854;50.838;4.438;2023-11-19T04:52:15;34.08;;;6.30;;
59066;SDS011;44854;50.838;4.438;2023-11-19T04:54:41;39.63;;;7.05;;
59066;SDS011;44854;50.838;4.438;2023-11-19T04:57:08;39.70;;;6.30;;
59066;SDS011;44854;50.838;4.438;2023-11-19T04:59:36;35.33;;;5.45;;
59066;SDS011;44854;50.838;4.438;2023-11-19T05:02:02;43.88;;;5.95;;
59066;SDS011;44854;50.838;4.438;2023-11-19T05:04:29;33.60;;;6.13;;
59066;SDS011;44854;50.838;4.438;2023-11-19T05:06:54;35.00;;;6.25;;
59066;SDS011;44854;50.838;4.438;2023-11-19T05:09:20;33.58;;;5.80;;
59066;SDS011;44854;50.838;4.438;2023-11-19T05:11:46;36.17;;;6.72;;
59066;SDS011;44854;50.838;4.438;2023-11-19T05:14:12;41.40;;;6.03;;
59066;SDS011;44854;50.838;4.438;2023-11-19T05:16:40;35.70;;;6.15;;
59066;SDS011;44854;50.838;4.438;2023-11-19T05:19:06;41.15;;;6.78;;
59066;SDS011;44854;50.838;4.438;2023-11-19T05:21:33;39.78;;;6.18;;
59066;SDS011;44854;50.838;4.438;2023-11-19T05:23:59;30.08;;;4.93;;
59066;SDS011;44854;50.838;4.438;2023-11-19T05:26:25;30.42;;;6.53;;
59066;SDS011;44854;50.838;4.438;2023-11-19T05:28:51;31.70;;;6.47;;
59066;SDS011;44854;50.838;4.438;2023-11-19T05:31:17;42.67;;;6.35;;
59066;SDS011;44854;50.838;4.438;2023-11-19T05:33:43;43.80;;;6.00;;
59066;SDS011;44854;50.838;4.438;2023-11-19T05:36:10;37.15;;;5.80;;
59066;SDS011;44854;50.838;4.438;2023-11-19T05:38:36;36.17;;;5.70;;
59066;SDS011;44854;50.838;4.438;2023-11-19T05:41:02;33.22;;;6.95;;
59066;SDS011;44854;50.838;4.438;2023-11-19T05:43:28;42.55;;;7.38;;
59066;SDS011;44854;50.838;4.438;2023-11-19T05:45:54;40.47;;;6.75;;
59066;SDS011;44854;50.838;4.438;2023-11-19T05:48:19;51.67;;;6.78;;
59066;SDS011;44854;50.838;4.438;2023-11-19T05:50:45;34.47;;;6.45;;
59066;SDS011;44854;50.838;4.438;2023-11-19T05:53:11;40.50;;;6.35;;
59066;SDS011;44854;50.838;4.438;2023-11-19T05:55:39;45.92;;;7.63;;
59066;SDS011;44854;50.838;4.438;2023-11-19T05:58:11;38.67;;;6.32;;
59066;SDS011;44854;50.838;4.438;2023-11-19T06:00:38;45.25;;;6.88;;
59066;SDS011;44854;50.838;4.438;2023-11-19T06:05:31;39.83;;;6.27;;
59066;SDS011;44854;50.838;4.438;2023-11-19T06:07:57;46.58;;;7.00;;
59066;SDS011;44854;50.838;4.438;2023-11-19T06:10:23;45.20;;;6.65;;
59066;SDS011;44854;50.838;4.438;2023-11-19T06:12:55;38.25;;;6.43;;
59066;SDS011;44854;50.838;4.438;2023-11-19T06:15:25;44.38;;;6.25;;
59066;SDS011;44854;50.838;4.438;2023-11-19T06:20:18;34.42;;;5.75;;
59066;SDS011;44854;50.838;4.438;2023-11-19T06:22:45;40.33;;;6.18;;
59066;SDS011;44854;50.838;4.438;2023-11-19T06:25:11;38.30;;;6.85;;
59066;SDS011;44854;50.838;4.438;2023-11-19T06:27:39;42.50;;;7.22;;
59066;SDS011;44854;50.838;4.438;2023-11-19T06:30:06;33.60;;;5.97;;
59066;SDS011;44854;50.838;4.438;2023-11-19T06:32:32;40.03;;;6.22;;
59066;SDS011;44854;50.838;4.438;2023-11-19T06:34:58;52.80;;;8.05;;
59066;SDS011;44854;50.838;4.438;2023-11-19T06:37:23;36.70;;;5.82;;
59066;SDS011;44854;50.838;4.438;2023-11-19T06:39:49;39.45;;;7.03;;
59066;SDS011;44854;50.838;4.438;2023-11-19T06:42:15;33.85;;;6.30;;
59066;SDS011;44854;50.838;4.438;2023-11-19T06:44:41;38.33;;;6.18;;
59066;SDS011;44854;50.838;4.438;2023-11-19T06:47:06;43.13;;;6.78;;
59066;SDS011;44854;50.838;4.438;2023-11-19T06:49:32;45.20;;;6.78;;
59066;SDS011;44854;50.838;4.438;2023-11-19T06:51:58;36.38;;;6.03;;
59066;SDS011;44854;50.838;4.438;2023-11-19T06:54:24;36.03;;;6.00;;
59066;SDS011;44854;50.838;4.438;2023-11-19T06:56:49;34.17;;;5.90;;
59066;SDS011;44854;50.838;4.438;2023-11-19T06:59:15;43.65;;;6.80;;
59066;SDS011;44854;50.838;4.438;2023-11-19T07:01:41;34.47;;;6.43;;
59066;SDS011;44854;50.838;4.438;2023-11-19T07:06:37;38.78;;;6.15;;
59066;SDS011;44854;50.838;4.438;2023-11-19T07:09:04;37.47;;;6.85;;
59066;SDS011;44854;50.838;4.438;2023-11-19T07:11:40;35.75;;;6.18;;
59066;SDS011;44854;50.838;4.438;2023-11-19T07:14:09;46.63;;;7.72;;
59066;SDS011;44854;50.838;4.438;2023-11-19T07:16:35;42.20;;;6.40;;
59066;SDS011;44854;50.838;4.438;2023-11-19T07:19:04;35.58;;;6.60;;
59066;SDS011;44854;50.838;4.438;2023-11-19T07:21:30;39.95;;;6.82;;
59066;SDS011;44854;50.838;4.438;2023-11-19T07:23:57;45.17;;;8.68;;
59066;SDS011;44854;50.838;4.438;2023-11-19T07:26:23;32.35;;;5.60;;
59066;SDS011;44854;50.838;4.438;2023-11-19T07:28:49;36.88;;;6.28;;
59066;SDS011;44854;50.838;4.438;2023-11-19T07:31:16;34.97;;;6.15;;
59066;SDS011;44854;50.838;4.438;2023-11-19T07:33:44;37.47;;;7.55;;
59066;SDS011;44854;50.838;4.438;2023-11-19T07:36:10;39.42;;;6.60;;
59066;SDS011;44854;50.838;4.438;2023-11-19T07:38:37;32.10;;;5.72;;
59066;SDS011;44854;50.838;4.438;2023-11-19T07:41:03;50.17;;;6.47;;
59066;SDS011;44854;50.838;4.438;2023-11-19T07:43:30;36.33;;;6.78;;
59066;SDS011;44854;50.838;4.438;2023-11-19T07:45:56;47.08;;;8.68;;
59066;SDS011;44854;50.838;4.438;2023-11-19T07:50:50;46.50;;;6.70;;
59066;SDS011;44854;50.838;4.438;2023-11-19T07:53:17;43.30;;;6.65;;
59066;SDS011;44854;50.838;4.438;2023-11-19T07:55:43;40.85;;;6.03;;
59066;SDS011;44854;50.838;4.438;2023-11-19T07:58:10;53.88;;;7.90;;
59066;SDS011;44854;50.838;4.438;2023-11-19T08:00:36;41.28;;;5.85;;
59066;SDS011;44854;50.838;4.438;2023-11-19T08:03:02;35.97;;;5.95;;
59066;SDS011;44854;50.838;4.438;2023-11-19T08:05:31;37.03;;;6.72;;
59066;SDS011;44854;50.838;4.438;2023-11-19T08:07:56;49.33;;;8.18;;
59066;SDS011;44854;50.838;4.438;2023-11-19T08:10:23;39.17;;;6.47;;
59066;SDS011;44854;50.838;4.438;2023-11-19T08:12:49;28.60;;;5.85;;
59066;SDS011;44854;50.838;4.438;2023-11-19T08:15:15;36.20;;;5.90;;
59066;SDS011;44854;50.838;4.438;2023-11-19T08:17:41;44.45;;;6.45;;
59066;SDS011;44854;50.838;4.438;2023-11-19T08:20:08;40.80;;;6.70;;
59066;SDS011;44854;50.838;4.438;2023-11-19T08:22:36;43.60;;;7.53;;
59066;SDS011;44854;50.838;4.438;2023-11-19T08:25:05;32.58;;;5.70;;
59066;SDS011;44854;50.838;4.438;2023-11-19T08:27:31;44.05;;;6.55;;
59066;SDS011;44854;50.838;4.438;2023-11-19T08:29:57;37.13;;;5.82;;
59066;SDS011;44854;50.838;4.438;2023-11-19T08:32:26;30.58;;;5.55;;
59066;SDS011;44854;50.838;4.438;2023-11-19T08:34:52;36.20;;;5.95;;
59066;SDS011;44854;50.838;4.438;2023-11-19T08:37:19;33.95;;;7.38;;
59066;SDS011;44854;50.838;4.438;2023-11-19T08:39:49;32.80;;;5.10;;
59066;SDS011;44854;50.838;4.438;2023-11-19T08:42:16;44.30;;;6.85;;
59066;SDS011;44854;50.838;4.438;2023-11-19T08:44:43;30.27;;;5.57;;
59066;SDS011;44854;50.838;4.438;2023-11-19T08:47:11;36.15;;;5.95;;
59066;SDS011;44854;50.838;4.438;2023-11-19T08:49:38;32.50;;;5.78;;
59066;SDS011;44854;50.838;4.438;2023-11-19T08:52:04;46.13;;;6.30;;
59066;SDS011;44854;50.838;4.438;2023-11-19T08:54:32;28.55;;;6.53;;
59066;SDS011;44854;50.838;4.438;2023-11-19T08:56:58;33.15;;;6.13;;
59066;SDS011;44854;50.838;4.438;2023-11-19T08:59:24;34.30;;;6.47;;
59066;SDS011;44854;50.838;4.438;2023-11-19T09:01:50;30.90;;;5.63;;
59066;SDS011;44854;50.838;4.438;2023-11-19T09:04:16;38.42;;;6.60;;
59066;SDS011;44854;50.838;4.438;2023-11-19T09:06:43;27.52;;;5.82;;
59066;SDS011;44854;50.838;4.438;2023-11-19T09:09:09;41.50;;;5.60;;
59066;SDS011;44854;50.838;4.438;2023-11-19T09:11:35;32.92;;;5.30;;
59066;SDS011;44854;50.838;4.438;2023-11-19T09:14:01;27.00;;;4.90;;
59066;SDS011;44854;50.838;4.438;2023-11-19T09:16:27;32.00;;;4.80;;
59066;SDS011;44854;50.838;4.438;2023-11-19T09:18:53;28.08;;;6.18;;
59066;SDS011;44854;50.838;4.438;2023-11-19T09:21:18;38.00;;;6.63;;
59066;SDS011;44854;50.838;4.438;2023-11-19T09:23:44;29.90;;;5.65;;
59066;SDS011;44854;50.838;4.438;2023-11-19T09:26:10;32.42;;;5.72;;
59066;SDS011;44854;50.838;4.438;2023-11-19T09:28:35;38.67;;;5.38;;
59066;SDS011;44854;50.838;4.438;2023-11-19T09:31:01;26.95;;;5.10;;
59066;SDS011;44854;50.838;4.438;2023-11-19T09:33:29;41.97;;;6.38;;
59066;SDS011;44854;50.838;4.438;2023-11-19T09:35:56;28.77;;;5.25;;
59066;SDS011;44854;50.838;4.438;2023-11-19T09:38:22;27.53;;;5.67;;
59066;SDS011;44854;50.838;4.438;2023-11-19T09:40:48;30.30;;;5.80;;
59066;SDS011;44854;50.838;4.438;2023-11-19T09:43:17;30.17;;;5.82;;
59066;SDS011;44854;50.838;4.438;2023-11-19T09:45:49;29.20;;;5.25;;
59066;SDS011;44854;50.838;4.438;2023-11-19T09:48:19;27.40;;;4.95;;
59066;SDS011;44854;50.838;4.438;2023-11-19T09:50:47;32.05;;;4.97;;
59066;SDS011;44854;50.838;4.438;2023-11-19T09:53:14;32.13;;;5.45;;
59066;SDS011;44854;50.838;4.438;2023-11-19T09:55:40;41.45;;;6.10;;
59066;SDS011;44854;50.838;4.438;2023-11-19T09:58:07;34.85;;;5.57;;
59066;SDS011;44854;50.838;4.438;2023-11-19T10:00:33;41.70;;;5.20;;
59066;SDS011;44854;50.838;4.438;2023-11-19T10:02:59;35.10;;;5.93;;
59066;SDS011;44854;50.838;4.438;2023-11-19T10:05:26;32.67;;;5.78;;
59066;SDS011;44854;50.838;4.438;2023-11-19T10:07:54;32.97;;;6.40;;
59066;SDS011;44854;50.838;4.438;2023-11-19T10:10:21;37.25;;;6.75;;
59066;SDS011;44854;50.838;4.438;2023-11-19T10:12:48;35.65;;;5.85;;
59066;SDS011;44854;50.838;4.438;2023-11-19T10:15:24;27.73;;;5.90;;
59066;SDS011;44854;50.838;4.438;2023-11-19T10:17:52;31.75;;;5.18;;
59066;SDS011;44854;50.838;4.438;2023-11-19T10:20:20;34.78;;;6.15;;
59066;SDS011;44854;50.838;4.438;2023-11-19T10:22:46;29.05;;;5.63;;
59066;SDS011;44854;50.838;4.438;2023-11-19T10:27:51;32.90;;;5.35;;
59066;SDS011;44854;50.838;4.438;2023-11-19T10:30:20;30.83;;;5.28;;
59066;SDS011;44854;50.838;4.438;2023-11-19T10:38:18;31.73;;;5.93;;
59066;SDS011;44854;50.838;4.438;2023-11-19T10:40:44;32.08;;;6.32;;
59066;SDS011;44854;50.838;4.438;2023-11-19T10:43:10;25.38;;;5.38;;
59066;SDS011;44854;50.838;4.438;2023-11-19T10:45:36;37.85;;;6.47;;
59066;SDS011;44854;50.838;4.438;2023-11-19T10:48:03;22.90;;;4.60;;
59066;SDS011;44854;50.838;4.438;2023-11-19T10:50:35;30.85;;;4.65;;
59066;SDS011;44854;50.838;4.438;2023-11-19T10:53:03;21.42;;;4.72;;
59066;SDS011;44854;50.838;4.438;2023-11-19T10:55:33;22.63;;;4.47;;
59066;SDS011;44854;50.838;4.438;2023-11-19T10:58:04;26.48;;;5.05;;
59066;SDS011;44854;50.838;4.438;2023-11-19T11:01:06;22.45;;;4.82;;
59066;SDS011;44854;50.838;4.438;2023-11-19T11:03:29;29.30;;;5.03;;
59066;SDS011;44854;50.838;4.438;2023-11-19T11:06:00;28.80;;;5.20;;
59066;SDS011;44854;50.838;4.438;2023-11-19T11:08:29;24.30;;;5.03;;
59066;SDS011;44854;50.838;4.438;2023-11-19T11:10:56;40.70;;;5.68;;
59066;SDS011;44854;50.838;4.438;2023-11-19T11:13:23;20.50;;;4.68;;
59066;SDS011;44854;50.838;4.438;2023-11-19T11:15:50;23.25;;;5.63;;
59066;SDS011;44854;50.838;4.438;2023-11-19T11:18:16;34.00;;;6.53;;
59066;SDS011;44854;50.838;4.438;2023-11-19T11:20:45;28.63;;;5.68;;
59066;SDS011;44854;50.838;4.438;2023-11-19T11:29:01;34.60;;;6.07;;
59066;SDS011;44854;50.838;4.438;2023-11-19T11:39:34;34.00;;;5.63;;
59066;SDS011;44854;50.838;4.438;2023-11-19T11:42:33;38.53;;;6.68;;
59066;SDS011;44854;50.838;4.438;2023-11-19T11:50:08;41.67;;;7.50;;
59066;SDS011;44854;50.838;4.438;2023-11-19T11:58:21;28.88;;;5.05;;
59066;SDS011;44854;50.838;4.438;2023-11-19T12:00:52;32.53;;;5.78;;
59066;SDS011;44854;50.838;4.438;2023-11-19T12:03:21;24.02;;;4.57;;
59066;SDS011;44854;50.838;4.438;2023-11-19T12:05:48;31.15;;;5.72;;
59066;SDS011;44854;50.838;4.438;2023-11-19T12:08:14;36.13;;;5.25;;
59066;SDS011;44854;50.838;4.438;2023-11-19T12:10:49;26.20;;;4.93;;
59066;SDS011;44854;50.838;4.438;2023-11-19T12:13:16;27.08;;;4.32;;
59066;SDS011;44854;50.838;4.438;2023-11-19T12:18:27;29.58;;;5.22;;
59066;SDS011;44854;50.838;4.438;2023-11-19T12:20:55;19.48;;;3.63;;
59066;SDS011;44854;50.838;4.438;2023-11-19T12:23:21;23.92;;;4.07;;
59066;SDS011;44854;50.838;4.438;2023-11-19T12:25:50;21.00;;;3.97;;
59066;SDS011;44854;50.838;4.438;2023-11-19T12:28:15;22.40;;;4.18;;
59066;SDS011;44854;50.838;4.438;2023-11-19T12:30:46;24.83;;;5.47;;
59066;SDS011;44854;50.838;4.438;2023-11-19T12:33:13;26.00;;;5.10;;
59066;SDS011;44854;50.838;4.438;2023-11-19T12:38:05;30.33;;;5.22;;
59066;SDS011;44854;50.838;4.438;2023-11-19T12:40:31;32.63;;;5.88;;
59066;SDS011;44854;50.838;4.438;2023-11-19T12:42:57;34.20;;;5.55;;
59066;SDS011;44854;50.838;4.438;2023-11-19T12:45:24;31.80;;;5.30;;
59066;SDS011;44854;50.838;4.438;2023-11-19T12:47:50;26.88;;;5.90;;
59066;SDS011;44854;50.838;4.438;2023-11-19T12:53:22;32.47;;;5.95;;
59066;SDS011;44854;50.838;4.438;2023-11-19T12:55:49;34.35;;;6.88;;
59066;SDS011;44854;50.838;4.438;2023-11-19T12:58:28;32.20;;;5.47;;
59066;SDS011;44854;50.838;4.438;2023-11-19T13:03:36;21.63;;;5.13;;
59066;SDS011;44854;50.838;4.438;2023-11-19T13:06:10;49.28;;;5.68;;
59066;SDS011;44854;50.838;4.438;2023-11-19T13:08:40;32.17;;;6.05;;
59066;SDS011;44854;50.838;4.438;2023-11-19T13:11:09;33.60;;;4.93;;
59066;SDS011;44854;50.838;4.438;2023-11-19T13:16:35;26.05;;;5.40;;
59066;SDS011;44854;50.838;4.438;2023-11-19T13:19:02;24.80;;;5.60;;
59066;SDS011;44854;50.838;4.438;2023-11-19T13:21:28;30.58;;;4.93;;
59066;SDS011;44854;50.838;4.438;2023-11-19T13:23:55;26.20;;;5.03;;
59066;SDS011;44854;50.838;4.438;2023-11-19T13:26:20;23.98;;;4.90;;
59066;SDS011;44854;50.838;4.438;2023-11-19T13:28:47;28.08;;;5.07;;
59066;SDS011;44854;50.838;4.438;2023-11-19T13:31:12;31.15;;;4.70;;
59066;SDS011;44854;50.838;4.438;2023-11-19T13:33:39;27.75;;;6.15;;
59066;SDS011;44854;50.838;4.438;2023-11-19T13:36:04;26.00;;;5.53;;
59066;SDS011;44854;50.838;4.438;2023-11-19T13:38:31;36.47;;;5.82;;
59066;SDS011;44854;50.838;4.438;2023-11-19T13:40:58;23.77;;;5.93;;
59066;SDS011;44854;50.838;4.438;2023-11-19T13:43:24;24.17;;;5.60;;
59066;SDS011;44854;50.838;4.438;2023-11-19T13:45:50;28.67;;;5.70;;
59066;SDS011;44854;50.838;4.438;2023-11-19T13:50:43;30.58;;;5.07;;
59066;SDS011;44854;50.838;4.438;2023-11-19T13:53:09;27.45;;;5.85;;
59066;SDS011;44854;50.838;4.438;2023-11-19T13:55:35;26.23;;;4.85;;
59066;SDS011;44854;50.838;4.438;2023-11-19T13:58:00;29.05;;;5.47;;
59066;SDS011;44854;50.838;4.438;2023-11-19T14:00:26;28.60;;;5.43;;
59066;SDS011;44854;50.838;4.438;2023-11-19T14:02:51;30.75;;;5.85;;
59066;SDS011;44854;50.838;4.438;2023-11-19T14:05:17;29.52;;;5.53;;
59066;SDS011;44854;50.838;4.438;2023-11-19T14:07:43;40.88;;;6.68;;
59066;SDS011;44854;50.838;4.438;2023-11-19T14:10:09;28.90;;;4.88;;
59066;SDS011;44854;50.838;4.438;2023-11-19T14:12:38;41.55;;;6.47;;
59066;SDS011;44854;50.838;4.438;2023-11-19T14:15:08;37.25;;;5.00;;
59066;SDS011;44854;50.838;4.438;2023-11-19T14:17:35;37.17;;;6.63;;
59066;SDS011;44854;50.838;4.438;2023-11-19T14:20:01;32.42;;;5.38;;
59066;SDS011;44854;50.838;4.438;2023-11-19T14:22:37;33.40;;;6.13;;
59066;SDS011;44854;50.838;4.438;2023-11-19T14:25:10;41.33;;;6.20;;
59066;SDS011;44854;50.838;4.438;2023-11-19T14:27:36;37.30;;;6.65;;
59066;SDS011;44854;50.838;4.438;2023-11-19T14:30:06;38.95;;;6.50;;
59066;SDS011;44854;50.838;4.438;2023-11-19T14:32:33;28.55;;;4.80;;
59066;SDS011;44854;50.838;4.438;2023-11-19T14:35:00;38.15;;;6.85;;
59066;SDS011;44854;50.838;4.438;2023-11-19T14:37:26;28.70;;;6.22;;
59066;SDS011;44854;50.838;4.438;2023-11-19T14:39:51;34.13;;;5.72;;
59066;SDS011;44854;50.838;4.438;2023-11-19T14:42:17;25.75;;;5.07;;
59066;SDS011;44854;50.838;4.438;2023-11-19T14:44:43;37.88;;;6.05;;
59066;SDS011;44854;50.838;4.438;2023-11-19T14:47:09;30.77;;;5.15;;
59066;SDS011;44854;50.838;4.438;2023-11-19T14:49:35;42.90;;;7.10;;
59066;SDS011;44854;50.838;4.438;2023-11-19T14:52:02;31.80;;;4.60;;
59066;SDS011;44854;50.838;4.438;2023-11-19T14:54:28;36.05;;;5.88;;
59066;SDS011;44854;50.838;4.438;2023-11-19T14:56:54;34.60;;;6.05;;
59066;SDS011;44854;50.838;4.438;2023-11-19T14:59:19;34.17;;;6.32;;
59066;SDS011;44854;50.838;4.438;2023-11-19T15:01:45;39.50;;;6.53;;
59066;SDS011;44854;50.838;4.438;2023-11-19T15:04:11;26.80;;;5.35;;
59066;SDS011;44854;50.838;4.438;2023-11-19T15:06:37;33.55;;;6.18;;
59066;SDS011;44854;50.838;4.438;2023-11-19T15:09:03;36.15;;;6.10;;
59066;SDS011;44854;50.838;4.438;2023-11-19T15:11:30;36.03;;;5.97;;
59066;SDS011;44854;50.838;4.438;2023-11-19T15:13:56;37.00;;;5.93;;
59066;SDS011;44854;50.838;4.438;2023-11-19T15:16:22;36.58;;;6.28;;
59066;SDS011;44854;50.838;4.438;2023-11-19T15:18:58;28.45;;;5.35;;
59066;SDS011;44854;50.838;4.438;2023-11-19T15:21:25;45.28;;;6.63;;
59066;SDS011;44854;50.838;4.438;2023-11-19T15:23:52;36.00;;;5.07;;
59066;SDS011;44854;50.838;4.438;2023-11-19T15:26:18;30.67;;;6.18;;
59066;SDS011;44854;50.838;4.438;2023-11-19T15:28:44;40.55;;;6.38;;
59066;SDS011;44854;50.838;4.438;2023-11-19T15:31:10;34.45;;;6.00;;